Time;durP1;ratioP1;P1;durP2;ratioP2;P2;SDS_P1;SDS_P2;PMS_P1;PMS_P2;Temp;Humidity;BMP_temperature;BMP_pressure;BME280_temperature;BME280_humidity;BME280_pressure;Samples;Min_cycle;Max_cycle;Signal;HPM_P1;HPM_P2
2022/01/24 00:02:27;;;;;;;25.33;17.40;;;5.80;99.90;;;;;;5035054;28;20052;-72
2022/01/24 00:04:53;;;;;;;27.83;17.83;;;5.60;99.90;;;;;;5053999;28;20095;-72
2022/01/24 00:07:21;;;;;;;29.15;18.65;;;5.70;99.90;;;;;;5053796;28;20076;-72
2022/01/24 00:09:48;;;;;;;27.65;18.25;;;6.20;99.90;;;;;;5054077;28;20123;-73
2022/01/24 00:12:21;;;;;;;26.35;17.85;;;6.00;99.90;;;;;;5035948;28;20511;-73
2022/01/24 00:18:13;;;;;;;27.42;18.10;;;5.80;99.90;;;;;;5021386;28;20056;-73
2022/01/24 00:28:13;;;;;;;32.08;20.50;;;5.80;99.90;;;;;;5035702;28;20199;-72
2022/01/24 00:30:39;;;;;;;27.13;18.05;;;6.20;99.90;;;;;;5036079;28;20128;-72
2022/01/24 00:33:06;;;;;;;32.92;19.27;;;5.90;99.90;;;;;;5053299;28;20064;-73
2022/01/24 00:35:32;;;;;;;29.13;19.23;;;5.80;99.90;;;;;;5053168;28;20044;-72
2022/01/24 00:38:00;;;;;;;30.85;20.10;;;7.30;99.90;;;;;;5035903;28;20037;-72
2022/01/24 00:40:28;;;;;;;32.47;20.13;;;5.70;99.90;;;;;;5036089;28;20136;-72
2022/01/24 00:42:57;;;;;;;31.67;19.75;;;5.90;99.90;;;;;;5035534;28;20131;-73
2022/01/24 00:53:29;;;;;;;29.73;19.02;;;5.80;99.90;;;;;;5035729;28;20079;-72
2022/01/24 00:55:56;;;;;;;28.92;17.88;;;5.80;99.90;;;;;;5035278;28;20049;-72
2022/01/24 00:58:21;;;;;;;28.58;17.38;;;5.70;99.90;;;;;;5035488;28;20044;-72
2022/01/24 01:00:47;;;;;;;28.98;18.42;;;5.80;99.90;;;;;;5035415;28;20048;-73
2022/01/24 01:03:12;;;;;;;28.33;17.88;;;5.70;99.90;;;;;;5052882;28;20044;-74
2022/01/24 01:19:20;;;;;;;22.95;15.35;;;5.70;99.90;;;;;;5021230;28;20139;-72
2022/01/24 01:21:46;;;;;;;;;;;5.90;99.90;;;;;;5053296;28;20049;-72
2022/01/24 01:24:12;;;;;;;20.60;14.05;;;5.40;99.90;;;;;;5034987;28;19921;-72
2022/01/24 01:26:44;;;;;;;25.10;15.75;;;5.90;99.90;;;;;;5034693;28;20131;-72
2022/01/24 01:29:17;;;;;;;24.02;15.07;;;5.70;99.90;;;;;;5019321;28;20141;-72
2022/01/24 01:32:02;;;;;;;24.33;15.05;;;5.40;99.90;;;;;;5035076;28;20059;-72
2022/01/24 01:34:49;;;;;;;23.58;14.38;;;5.50;99.90;;;;;;5034555;28;20090;-72
2022/01/24 01:37:51;;;;;;;21.88;13.45;;;5.40;99.90;;;;;;5034491;28;20408;-72
2022/01/24 01:54:09;;;;;;;19.58;11.88;;;6.00;99.90;;;;;;5052470;28;20143;-74
2022/01/24 01:56:34;;;;;;;19.63;12.55;;;5.50;99.90;;;;;;5034461;28;20063;-74
2022/01/24 01:59:00;;;;;;;19.13;12.63;;;5.60;99.90;;;;;;5052354;28;20132;-72
2022/01/24 02:01:26;;;;;;;16.40;12.18;;;;;;;;;;5052657;28;20095;-72
2022/01/24 02:03:54;;;;;;;19.10;12.20;;;5.60;99.90;;;;;;5034044;28;20424;-72
2022/01/24 02:06:21;;;;;;;20.17;11.95;;;5.50;99.90;;;;;;5034627;28;20075;-72
2022/01/24 02:08:47;;;;;;;17.02;11.55;;;5.40;99.90;;;;;;5018184;28;20107;-72
2022/01/24 02:11:16;;;;;;;17.05;11.77;;;5.50;99.90;;;;;;5051937;28;20049;-72
2022/01/24 02:13:46;;;;;;;19.10;11.70;;;5.40;99.90;;;;;;5034783;28;20049;-72
2022/01/24 02:16:28;;;;;;;18.65;11.55;;;5.80;99.90;;;;;;5017611;28;20073;-73
2022/01/24 02:19:10;;;;;;;17.58;11.18;;;5.30;99.90;;;;;;5034797;28;20053;-72
2022/01/24 02:21:46;;;;;;;15.95;10.57;;;5.50;99.90;;;;;;5034187;28;20087;-73
2022/01/24 02:24:14;;;;;;;16.92;10.30;;;5.30;99.90;;;;;;5034872;28;20091;-72
2022/01/24 02:26:40;;;;;;;16.30;10.43;;;5.30;99.90;;;;;;5038169;28;20481;-71
2022/01/24 02:31:56;;;;;;;14.90;9.85;;;5.40;99.90;;;;;;5009979;28;19921;-73
2022/01/24 02:34:25;;;;;;;14.88;10.55;;;5.40;99.90;;;;;;5056001;28;20489;-73
2022/01/24 02:36:52;;;;;;;13.55;10.02;;;5.40;99.90;;;;;;5037903;28;20085;-74
2022/01/24 02:50:33;;;;;;;13.45;9.80;;;5.40;99.90;;;;;;5037694;28;20095;-73
2022/01/24 02:52:59;;;;;;;13.63;8.98;;;5.70;99.90;;;;;;5021218;28;20041;-71
2022/01/24 02:55:25;;;;;;;12.77;9.30;;;5.50;99.90;;;;;;5055347;28;20053;-71
2022/01/24 02:57:51;;;;;;;11.85;9.00;;;5.30;99.90;;;;;;5037812;28;20140;-72
2022/01/24 03:00:16;;;;;;;14.63;9.38;;;5.30;99.90;;;;;;5055038;28;20051;-73
2022/01/24 03:02:43;;;;;;;12.15;8.98;;;5.60;99.90;;;;;;5004830;28;20057;-73
2022/01/24 03:05:09;;;;;;;12.57;8.65;;;5.50;99.90;;;;;;5037128;28;20083;-71
2022/01/24 03:07:34;;;;;;;12.40;9.18;;;5.60;99.90;;;;;;5037522;28;20049;-72
2022/01/24 03:10:08;;;;;;;13.13;8.75;;;5.50;99.90;;;;;;5037923;28;20040;-73
2022/01/24 03:12:46;;;;;;;13.32;8.88;;;5.60;99.90;;;;;;5022093;28;20087;-70
2022/01/24 03:15:12;;;;;;;14.48;9.15;;;5.30;99.90;;;;;;5037104;28;20123;-72
2022/01/24 03:17:38;;;;;;;;;;;5.40;99.90;;;;;;5037224;28;20053;-74
2022/01/24 03:20:05;;;;;;;12.98;8.30;;;5.60;99.90;;;;;;5054696;28;19928;-73
2022/01/24 03:22:31;;;;;;;11.40;8.00;;;5.50;99.90;;;;;;5055156;28;20041;-72
2022/01/24 03:24:57;;;;;;;14.18;9.48;;;5.30;99.90;;;;;;5037249;28;20114;-71
2022/01/24 03:27:23;;;;;;;12.63;9.32;;;5.40;99.90;;;;;;5054863;28;20056;-72
2022/01/24 03:29:49;;;;;;;14.85;9.50;;;5.20;99.90;;;;;;5054317;28;20049;-72
2022/01/24 03:32:14;;;;;;;12.50;8.93;;;5.60;99.90;;;;;;5054894;28;20045;-73
2022/01/24 03:34:40;;;;;;;14.02;8.30;;;5.30;99.90;;;;;;5036607;28;20057;-72
2022/01/24 03:37:07;;;;;;;12.02;8.68;;;5.50;99.90;;;;;;5036558;28;20481;-73
2022/01/24 03:39:33;;;;;;;12.85;8.63;;;5.50;99.90;;;;;;5036550;28;20127;-72
2022/01/24 03:42:00;;;;;;;11.70;8.13;;;5.60;99.90;;;;;;5037066;28;20084;-72
2022/01/24 03:44:27;;;;;;;11.65;8.63;;;5.20;99.90;;;;;;5054048;28;20536;-72
2022/01/24 03:49:45;;;;;;;13.77;8.73;;;5.20;99.90;;;;;;5036903;28;20049;-73
2022/01/24 03:52:12;;;;;;;13.80;9.02;;;5.50;99.90;;;;;;5020271;28;20069;-73
2022/01/24 03:54:38;;;;;;;14.07;9.27;;;5.20;99.90;;;;;;5054275;28;20049;-73
2022/01/24 03:57:04;;;;;;;13.50;8.88;;;5.30;99.90;;;;;;4987143;28;20102;-72
2022/01/24 03:59:30;;;;;;;;;;;5.30;99.90;;;;;;5019987;28;20135;-73
2022/01/24 04:01:59;;;;;;;13.07;8.20;;;5.20;99.90;;;;;;5054303;28;19921;-73
2022/01/24 04:04:25;;;;;;;11.60;8.43;;;5.10;99.90;;;;;;5054048;28;20110;-73
2022/01/24 04:06:51;;;;;;;12.88;8.60;;;5.20;99.90;;;;;;5036240;28;20052;-73
2022/01/24 04:09:16;;;;;;;14.55;8.98;;;5.40;99.90;;;;;;5036488;28;20044;-73
2022/01/24 04:11:42;;;;;;;14.55;8.93;;;5.20;99.90;;;;;;5036155;28;20084;-73
2022/01/24 04:14:26;;;;;;;13.27;9.43;;;4.90;99.90;;;;;;5019435;28;20045;-73
2022/01/24 04:17:03;;;;;;;14.10;9.35;;;5.30;99.90;;;;;;5036157;28;20045;-72
2022/01/24 04:22:18;;;;;;;15.85;9.23;;;5.20;99.90;;;;;;4996172;28;20139;-72
2022/01/24 04:24:46;;;;;;;14.05;9.48;;;5.00;99.90;;;;;;5035935;28;20053;-72
2022/01/24 04:27:15;;;;;;;14.48;9.68;;;5.40;99.90;;;;;;5035835;28;20132;-72
2022/01/24 04:29:42;;;;;;;15.32;10.05;;;4.90;99.90;;;;;;5020407;28;20095;-72
2022/01/24 04:32:09;;;;;;;16.52;10.18;;;5.60;99.90;;;;;;5053502;28;20652;-72
2022/01/24 04:34:35;;;;;;;14.73;9.55;;;5.10;99.90;;;;;;5018814;28;20105;-72
2022/01/24 04:37:01;;;;;;;15.10;10.48;;;5.10;99.90;;;;;;5053189;28;20389;-72
2022/01/24 04:39:28;;;;;;;15.52;9.40;;;5.40;99.90;;;;;;5019220;28;20052;-72
2022/01/24 04:41:56;;;;;;;;;;;5.40;99.90;;;;;;5036212;28;20053;-72
2022/01/24 04:52:58;;;;;;;15.82;10.30;;;5.30;99.90;;;;;;5035638;28;20053;-72
2022/01/24 04:55:24;;;;;;;15.68;10.75;;;5.20;99.90;;;;;;5018971;28;20087;-73
2022/01/24 04:57:50;;;;;;;14.77;9.13;;;5.10;99.90;;;;;;5052815;28;20135;-73
2022/01/24 05:00:15;;;;;;;13.95;9.85;;;5.10;99.90;;;;;;5035337;28;20377;-72
2022/01/24 05:02:41;;;;;;;16.08;10.10;;;4.80;99.90;;;;;;5053169;28;20056;-72
2022/01/24 05:05:12;;;;;;;15.40;10.30;;;5.40;99.90;;;;;;5053077;28;20045;-73
2022/01/24 05:07:38;;;;;;;14.88;9.70;;;5.00;99.90;;;;;;5035332;28;20056;-72
2022/01/24 05:10:21;;;;;;;14.25;9.77;;;5.30;99.90;;;;;;5035295;28;20045;-72
2022/01/24 05:23:35;;;;;;;16.08;10.75;;;5.10;99.90;;;;;;5035100;28;20198;-72
2022/01/24 05:26:04;;;;;;;17.42;11.38;;;4.90;99.90;;;;;;5034755;28;20041;-72
2022/01/24 05:28:31;;;;;;;16.67;10.45;;;4.90;99.90;;;;;;5034921;28;20095;-72
2022/01/24 05:30:58;;;;;;;15.70;10.65;;;5.10;99.90;;;;;;5035081;28;20080;-71
2022/01/24 05:33:25;;;;;;;18.08;10.82;;;5.10;99.90;;;;;;5034766;28;20068;-72
2022/01/24 05:35:51;;;;;;;17.08;11.43;;;5.10;99.90;;;;;;5052460;28;20543;-72
2022/01/24 05:38:17;;;;;;;20.65;12.40;;;5.10;99.90;;;;;;5052913;28;20054;-72
2022/01/24 05:40:44;;;;;;;;;;;5.20;99.90;;;;;;5034710;28;20547;-72
2022/01/24 05:43:10;;;;;;;15.38;10.57;;;4.90;99.90;;;;;;5052610;28;19921;-72
2022/01/24 05:45:36;;;;;;;15.93;10.75;;;5.10;99.90;;;;;;5034447;28;20116;-73
2022/01/24 05:48:03;;;;;;;18.77;11.23;;;4.90;99.90;;;;;;5034738;28;20041;-72
2022/01/24 05:50:28;;;;;;;17.45;11.43;;;5.10;99.90;;;;;;5052471;28;20105;-72
2022/01/24 05:52:55;;;;;;;18.10;10.63;;;5.00;99.90;;;;;;5052543;28;20048;-72
2022/01/24 05:55:20;;;;;;;19.33;11.18;;;6.70;99.90;;;;;;5052341;28;20048;-72
2022/01/24 05:57:46;;;;;;;17.63;11.40;;;4.70;99.90;;;;;;5052483;28;20037;-72
2022/01/24 06:00:13;;;;;;;20.90;12.73;;;4.80;99.90;;;;;;5056032;28;20064;-72
2022/01/24 06:02:40;;;;;;;26.02;12.00;;;4.80;99.90;;;;;;5038466;28;20135;-72
2022/01/24 06:05:07;;;;;;;18.02;11.95;;;5.20;99.90;;;;;;5056461;28;20048;-71
2022/01/24 06:07:32;;;;;;;21.45;12.10;;;5.20;99.90;;;;;;5056707;28;20111;-72
2022/01/24 06:09:58;;;;;;;20.50;11.80;;;5.10;99.90;;;;;;5038134;28;20493;-71
2022/01/24 06:12:25;;;;;;;18.10;11.77;;;4.90;99.90;;;;;;5056481;28;20052;-71
2022/01/24 06:14:51;;;;;;;26.83;12.73;;;5.00;99.90;;;;;;5056210;28;20057;-71
2022/01/24 06:17:17;;;;;;;19.85;12.60;;;4.70;99.90;;;;;;5038147;28;20562;-71
2022/01/24 06:19:43;;;;;;;;;;;5.00;99.90;;;;;;5038871;28;20095;-71
2022/01/24 06:22:09;;;;;;;21.90;12.48;;;5.00;99.90;;;;;;5038501;28;19921;-71
2022/01/24 06:24:34;;;;;;;22.55;12.82;;;4.70;99.90;;;;;;5037714;28;20382;-72
2022/01/24 06:27:00;;;;;;;22.90;12.57;;;5.10;99.90;;;;;;5038515;28;20056;-72
2022/01/24 06:29:26;;;;;;;21.55;12.32;;;5.10;99.90;;;;;;5055856;28;20489;-72
2022/01/24 06:31:51;;;;;;;20.30;12.80;;;5.10;99.90;;;;;;5038046;28;20133;-72
2022/01/24 06:34:17;;;;;;;19.63;12.50;;;5.00;99.90;;;;;;5056160;28;20144;-72
2022/01/24 06:36:43;;;;;;;18.25;12.38;;;5.10;99.90;;;;;;5037929;28;20102;-72
2022/01/24 06:39:11;;;;;;;18.38;12.23;;;5.00;99.90;;;;;;5055635;28;20057;-72
2022/01/24 06:41:37;;;;;;;19.30;12.20;;;5.00;99.90;;;;;;5037985;28;20053;-71
2022/01/24 06:44:03;;;;;;;19.92;12.38;;;5.10;99.90;;;;;;5021393;28;20048;-72
2022/01/24 06:46:29;;;;;;;21.05;13.50;;;5.00;99.90;;;;;;5055320;28;20047;-72
2022/01/24 06:48:55;;;;;;;23.48;13.93;;;4.80;99.90;;;;;;5021973;28;20044;-72
2022/01/24 06:51:22;;;;;;;21.20;13.50;;;4.90;99.90;;;;;;5038254;28;20108;-72
2022/01/24 06:53:49;;;;;;;20.38;12.55;;;5.20;99.90;;;;;;5055027;28;20542;-72
2022/01/24 06:56:14;;;;;;;;;;;5.10;99.90;;;;;;5038348;28;20102;-72
2022/01/24 06:58:40;;;;;;;24.35;14.82;;;5.10;99.90;;;;;;5021231;28;19925;-72
2022/01/24 07:06:38;;;;;;;21.13;13.70;;;4.90;99.90;;;;;;5110394;27;20500;-73
2022/01/24 07:09:04;;;;;;;23.52;13.85;;;;;;;;;;5109581;28;20505;-73
2022/01/24 07:11:30;;;;;;;25.20;14.77;;;5.00;99.90;;;;;;5110354;28;20048;-73
2022/01/24 07:13:55;;;;;;;22.63;13.15;;;5.00;99.90;;;;;;5110684;28;20394;-73
2022/01/24 07:16:21;;;;;;;25.10;13.82;;;5.00;99.90;;;;;;5109196;28;20102;-73
2022/01/24 07:18:59;;;;;;;24.17;14.82;;;4.90;99.90;;;;;;5109399;28;20052;-73
2022/01/24 07:21:24;;;;;;;22.25;14.38;;;5.00;99.90;;;;;;5110257;28;20058;-73
2022/01/24 07:23:50;;;;;;;23.95;14.30;;;5.00;99.90;;;;;;5110099;28;20123;-73
2022/01/24 07:26:16;;;;;;;26.75;15.43;;;4.90;99.90;;;;;;5109899;28;20497;-73
2022/01/24 07:28:44;;;;;;;23.70;14.75;;;5.00;99.90;;;;;;5110323;28;20147;-73
2022/01/24 07:31:11;;;;;;;27.10;14.20;;;4.90;99.90;;;;;;5110362;28;20044;-73
2022/01/24 07:33:40;;;;;;;24.52;13.93;;;5.20;99.90;;;;;;5109078;28;20044;-74
2022/01/24 07:36:06;;;;;;;23.27;14.68;;;5.30;99.90;;;;;;5108622;28;20040;-73
2022/01/24 07:38:32;;;;;;;24.38;14.60;;;5.00;99.90;;;;;;5108532;28;20459;-73
2022/01/24 07:41:00;;;;;;;23.67;14.85;;;5.10;99.90;;;;;;5109843;28;20044;-73
2022/01/24 07:43:26;;;;;;;25.85;15.10;;;;;;;;;;5108992;28;20475;-73
2022/01/24 07:45:52;;;;;;;24.50;16.00;;;5.10;99.90;;;;;;5108638;28;20040;-73
2022/01/24 07:48:19;;;;;;;28.20;15.18;;;;;;;;;;5110047;28;20070;-73
2022/01/24 07:50:46;;;;;;;27.33;14.43;;;5.20;99.90;;;;;;5108395;28;20054;-74
2022/01/24 07:53:14;;;;;;;23.70;14.73;;;5.00;99.90;;;;;;5109686;28;20044;-74
2022/01/24 07:55:41;;;;;;;22.70;14.70;;;;;;;;;;5085043;28;20055;-74
2022/01/24 07:58:07;;;;;;;27.92;15.57;;;5.10;99.90;;;;;;5106828;28;20454;-74
2022/01/24 08:00:34;;;;;;;25.77;15.43;;;5.00;99.90;;;;;;5107269;28;20132;-75
2022/01/24 08:02:59;;;;;;;23.90;14.60;;;5.60;99.90;;;;;;5106973;28;20074;-73
2022/01/24 08:05:26;;;;;;;27.42;15.57;;;5.30;99.90;;;;;;5105654;28;20063;-73
2022/01/24 08:07:51;;;;;;;26.27;14.10;;;5.40;99.90;;;;;;5106767;28;20503;-74
2022/01/24 08:10:17;;;;;;;26.63;15.00;;;5.10;99.90;;;;;;5106998;28;20047;-74
2022/01/24 08:12:44;;;;;;;24.95;14.95;;;4.90;99.90;;;;;;5108537;28;20040;-73
2022/01/24 08:15:17;;;;;;;25.60;14.15;;;5.20;99.90;;;;;;5107403;28;20433;-74
2022/01/24 08:17:43;;;;;;;27.98;15.43;;;;;;;;;;5094773;28;20461;-74
2022/01/24 08:20:11;;;;;;;25.60;14.70;;;4.90;99.90;;;;;;5094298;28;20101;-74
2022/01/24 08:22:37;;;;;;;27.45;15.32;;;5.30;99.90;;;;;;5090843;28;20123;-72
2022/01/24 08:25:04;;;;;;;26.27;15.95;;;5.10;99.90;;;;;;5093203;28;20052;-72
2022/01/24 08:27:34;;;;;;;25.50;14.88;;;5.20;99.90;;;;;;5094950;28;20193;-72
2022/01/24 08:30:00;;;;;;;26.58;15.35;;;5.00;99.90;;;;;;5094802;28;20044;-72
2022/01/24 08:32:26;;;;;;;24.40;15.73;;;4.90;99.90;;;;;;5092727;28;20055;-72
2022/01/24 08:34:52;;;;;;;28.70;16.15;;;5.40;99.90;;;;;;5093931;28;20077;-71
2022/01/24 08:37:17;;;;;;;27.60;16.00;;;5.10;99.90;;;;;;5092492;28;20051;-71
2022/01/24 08:39:44;;;;;;;26.65;15.25;;;5.40;99.90;;;;;;5094037;28;20040;-72
2022/01/24 08:42:16;;;;;;;26.20;15.38;;;5.00;99.90;;;;;;5093049;28;20384;-74
2022/01/24 08:47:29;;;;;;;26.25;15.20;;;5.00;99.90;;;;;;5092704;28;20606;-71
2022/01/24 08:49:56;;;;;;;29.00;16.30;;;4.90;99.90;;;;;;5089997;28;20051;-72
2022/01/24 08:52:22;;;;;;;26.27;15.95;;;5.20;99.90;;;;;;5093913;28;20495;-71
2022/01/24 08:54:48;;;;;;;27.48;15.93;;;5.10;99.90;;;;;;5092397;28;20071;-72
2022/01/24 08:57:14;;;;;;;28.70;16.58;;;5.10;99.90;;;;;;5092965;28;20079;-72
2022/01/24 08:59:40;;;;;;;30.23;16.52;;;5.60;99.90;;;;;;5093900;28;20093;-73
2022/01/24 09:02:07;;;;;;;27.90;16.00;;;5.30;99.90;;;;;;5092618;28;20154;-72
2022/01/24 09:04:33;;;;;;;27.23;15.70;;;5.50;99.90;;;;;;5093325;28;20056;-72
2022/01/24 09:07:03;;;;;;;25.48;15.80;;;5.10;99.90;;;;;;5091790;28;20067;-72
2022/01/24 09:09:30;;;;;;;26.30;16.08;;;5.10;99.90;;;;;;5093573;28;20061;-72
2022/01/24 09:11:56;;;;;;;28.38;16.48;;;5.40;99.90;;;;;;5093949;28;20395;-72
2022/01/24 09:14:23;;;;;;;28.55;16.15;;;4.90;99.90;;;;;;5092443;28;20043;-71
2022/01/24 09:16:49;;;;;;;29.27;16.77;;;5.30;99.90;;;;;;5092096;28;20040;-72
2022/01/24 09:19:14;;;;;;;26.90;16.13;;;5.20;99.90;;;;;;5093819;28;20109;-72
2022/01/24 09:21:40;;;;;;;33.05;16.30;;;5.10;99.90;;;;;;5092659;28;20071;-72
2022/01/24 09:24:06;;;;;;;28.73;16.20;;;5.30;99.90;;;;;;5092395;28;20044;-72
2022/01/24 09:26:33;;;;;;;29.40;16.75;;;;;;;;;;5090913;28;20044;-71
2022/01/24 09:28:58;;;;;;;;;;;5.00;99.90;;;;;;5092700;28;20040;-72
2022/01/24 09:31:25;;;;;;;29.23;16.80;;;;;;;;;;5092439;28;19924;-72
2022/01/24 09:33:52;;;;;;;25.77;16.00;;;5.60;99.90;;;;;;5093553;28;20442;-72
2022/01/24 09:36:18;;;;;;;28.17;16.77;;;;;;;;;;5092230;28;20078;-73
2022/01/24 09:38:44;;;;;;;30.42;17.50;;;5.30;99.90;;;;;;5093212;28;20044;-72
2022/01/24 09:41:15;;;;;;;29.23;17.23;;;5.20;99.90;;;;;;5092163;28;20392;-71
2022/01/24 09:43:43;;;;;;;30.67;16.63;;;5.60;99.90;;;;;;5091874;28;20397;-71
2022/01/24 09:46:09;;;;;;;29.40;16.77;;;;;;;;;;5090260;28;20119;-75
2022/01/24 09:48:38;;;;;;;29.63;17.52;;;5.60;99.90;;;;;;5092661;28;20047;-72
2022/01/24 09:51:04;;;;;;;30.73;16.90;;;5.10;99.90;;;;;;5092783;28;20518;-72
2022/01/24 09:53:30;;;;;;;31.35;17.23;;;;;;;;;;5092576;28;20054;-71
2022/01/24 09:56:02;;;;;;;28.98;16.95;;;5.40;99.90;;;;;;5091278;28;20051;-72
2022/01/24 09:58:28;;;;;;;30.75;17.48;;;5.40;99.90;;;;;;5094220;28;20044;-76
2022/01/24 10:00:54;;;;;;;30.98;18.42;;;5.40;99.90;;;;;;5087600;28;20047;-75
2022/01/24 10:03:23;;;;;;;31.58;18.15;;;5.40;99.90;;;;;;5092542;28;20119;-75
2022/01/24 10:05:54;;;;;;;32.38;18.38;;;5.50;99.90;;;;;;5091404;28;20052;-74
2022/01/24 10:08:23;;;;;;;35.47;17.52;;;5.40;99.90;;;;;;5092430;28;20446;-73
2022/01/24 10:10:52;;;;;;;29.58;17.38;;;5.40;99.90;;;;;;5092206;28;20484;-73
2022/01/24 10:16:28;;;;;;;31.83;17.70;;;5.50;99.90;;;;;;5092137;28;20082;-76
2022/01/24 10:19:16;;;;;;;33.83;18.75;;;5.40;99.90;;;;;;5093389;28;20051;-77
2022/01/24 10:21:43;;;;;;;;;;;5.30;99.90;;;;;;5092546;28;20052;-78
2022/01/24 10:24:12;;;;;;;31.10;18.27;;;5.60;99.90;;;;;;5075272;28;19927;-74
2022/01/24 10:26:38;;;;;;;33.65;18.95;;;5.60;99.90;;;;;;5091911;28;20043;-74
2022/01/24 10:29:10;;;;;;;32.55;17.85;;;5.60;99.90;;;;;;5091956;28;20046;-76
2022/01/24 10:31:45;;;;;;;35.97;18.85;;;5.90;99.90;;;;;;5091389;28;20059;-78
2022/01/24 10:34:56;;;;;;;35.60;19.05;;;5.50;99.90;;;;;;5093294;28;20054;-73
2022/01/24 10:36:57;;;;;;;40.55;20.40;;;5.60;99.90;;;;;;5085699;28;20135;-73
2022/01/24 10:39:43;;;;;;;;;;;5.70;99.90;;;;;;5093266;28;20048;-73
2022/01/24 10:45:12;;;;;;;38.35;20.25;;;5.70;99.90;;;;;;5092751;28;20125;-74
2022/01/24 10:47:44;;;;;;;33.00;18.92;;;5.50;99.90;;;;;;5091899;28;20496;-73
2022/01/24 10:50:23;;;;;;;35.60;19.83;;;5.80;99.90;;;;;;5092020;28;20039;-73
2022/01/24 10:52:49;;;;;;;35.40;19.58;;;5.70;99.90;;;;;;5093140;28;20121;-73
2022/01/24 10:55:21;;;;;;;39.38;21.40;;;5.50;99.90;;;;;;5075110;28;20480;-74
2022/01/24 10:57:49;;;;;;;34.92;19.23;;;5.80;99.90;;;;;;5091804;28;20488;-74
2022/01/24 11:00:24;;;;;;;34.80;18.95;;;5.60;99.90;;;;;;5092614;28;20044;-74
2022/01/24 11:02:55;;;;;;;35.92;19.80;;;5.80;99.90;;;;;;5092699;28;20051;-73
2022/01/24 11:05:27;;;;;;;38.47;20.27;;;5.80;99.90;;;;;;5092568;28;20052;-74
2022/01/24 11:08:02;;;;;;;35.47;20.02;;;6.10;99.90;;;;;;5091988;28;20622;-74
2022/01/24 11:10:40;;;;;;;39.83;20.50;;;5.50;99.90;;;;;;5091411;28;20381;-74
2022/01/24 11:13:06;;;;;;;35.78;20.58;;;5.80;99.90;;;;;;5091395;28;20545;-74
2022/01/24 11:15:34;;;;;;;41.28;20.65;;;5.90;99.90;;;;;;5092514;28;20037;-74
2022/01/24 11:18:01;;;;;;;39.72;21.45;;;5.80;99.90;;;;;;5092939;28;20048;-74
2022/01/24 11:20:33;;;;;;;38.92;21.15;;;5.90;99.90;;;;;;5092452;28;20083;-73
2022/01/24 11:23:05;;;;;;;41.45;21.90;;;5.80;99.90;;;;;;5092784;28;20048;-74
2022/01/24 11:25:40;;;;;;;39.72;21.30;;;5.60;99.90;;;;;;5092552;28;20625;-74
2022/01/24 11:28:06;;;;;;;42.50;22.58;;;6.10;99.90;;;;;;5092253;28;20408;-76
2022/01/24 11:30:47;;;;;;;39.20;21.50;;;5.90;99.90;;;;;;5092693;28;20044;-74
2022/01/24 11:33:19;;;;;;;37.47;19.75;;;5.80;99.90;;;;;;5092699;28;20130;-74
2022/01/24 11:35:52;;;;;;;38.58;21.15;;;5.90;99.90;;;;;;5092638;28;20089;-74
2022/01/24 11:38:37;;;;;;;39.20;20.88;;;5.90;99.90;;;;;;5091394;28;20044;-74
2022/01/24 11:41:12;;;;;;;40.72;21.02;;;5.90;99.90;;;;;;5092549;28;20474;-74
2022/01/24 11:43:44;;;;;;;38.97;21.38;;;5.80;99.90;;;;;;5092438;28;20052;-74
2022/01/24 11:46:43;;;;;;;40.45;21.52;;;5.90;99.90;;;;;;5092374;28;20036;-74
2022/01/24 11:49:11;;;;;;;40.45;21.10;;;5.80;99.90;;;;;;5092635;28;20234;-74
2022/01/24 11:51:38;;;;;;;42.08;21.63;;;5.60;99.90;;;;;;5093015;28;20219;-73
2022/01/24 11:54:31;;;;;;;40.65;22.02;;;5.60;99.90;;;;;;5096196;28;20048;-74
2022/01/24 11:57:17;;;;;;;41.03;22.90;;;6.10;99.90;;;;;;5095923;28;20048;-74
2022/01/24 11:59:43;;;;;;;40.42;22.45;;;5.80;99.90;;;;;;5094283;28;20075;-80
2022/01/24 12:02:11;;;;;;;42.42;22.77;;;5.70;99.90;;;;;;5078926;28;20040;-74
2022/01/24 12:04:51;;;;;;;42.90;22.80;;;5.90;99.90;;;;;;5095197;28;20396;-74
2022/01/24 12:07:18;;;;;;;38.60;21.30;;;5.60;99.90;;;;;;5091284;28;20073;-74
2022/01/24 12:09:44;;;;;;;39.92;21.98;;;5.90;99.90;;;;;;5095311;28;20109;-75
2022/01/24 12:12:48;;;;;;;38.53;21.88;;;5.80;99.90;;;;;;5075156;28;20040;-79
2022/01/24 12:15:38;;;;;;;38.53;22.38;;;6.00;99.90;;;;;;5076305;28;20104;-73
2022/01/24 12:18:08;;;;;;;39.88;22.13;;;5.80;99.90;;;;;;5074706;28;20483;-74
2022/01/24 12:20:45;;;;;;;40.85;22.13;;;5.80;99.90;;;;;;5075442;28;20459;-74
2022/01/24 12:23:16;;;;;;;40.15;22.38;;;6.00;99.90;;;;;;5075163;28;20056;-74
2022/01/24 12:26:08;;;;;;;43.00;22.70;;;5.80;99.90;;;;;;5057042;28;20144;-74
2022/01/24 12:28:46;;;;;;;43.33;23.73;;;5.90;99.90;;;;;;5075179;28;20074;-74
2022/01/24 12:31:36;;;;;;;44.10;22.85;;;6.20;99.90;;;;;;5075432;28;20076;-74
2022/01/24 12:34:13;;;;;;;41.70;22.58;;;5.60;99.90;;;;;;5074280;28;20052;-74
2022/01/24 12:36:39;;;;;;;42.58;23.08;;;5.70;99.90;;;;;;5073954;28;20091;-74
2022/01/24 12:39:10;;;;;;;44.20;23.50;;;5.60;99.90;;;;;;5075262;28;20535;-74
2022/01/24 12:41:43;;;;;;;47.58;24.15;;;5.90;99.90;;;;;;5056694;28;20511;-74
2022/01/24 12:46:16;;;;;;;48.08;23.88;;;5.80;99.90;;;;;;5073992;28;20045;-74
2022/01/24 12:46:54;;;;;;;45.40;23.95;;;5.80;99.90;;;;;;5073927;28;20378;-74
2022/01/24 12:49:20;;;;;;;44.90;23.85;;;5.80;99.90;;;;;;5074809;28;20055;-74
2022/01/24 12:51:48;;;;;;;43.10;22.65;;;5.80;99.90;;;;;;5057529;28;20044;-74
2022/01/24 12:54:16;;;;;;;45.90;24.60;;;5.80;99.90;;;;;;5073616;28;20141;-73
2022/01/24 12:56:42;;;;;;;44.28;22.98;;;6.00;99.90;;;;;;5074814;28;20393;-74
2022/01/24 12:59:08;;;;;;;46.13;23.83;;;5.70;99.90;;;;;;5091721;28;20054;-75
2022/01/24 13:01:37;;;;;;;47.30;24.05;;;6.00;99.90;;;;;;5095597;28;20051;-74
2022/01/24 13:04:12;;;;;;;43.45;24.00;;;5.60;99.90;;;;;;5114998;28;20047;-74
2022/01/24 13:06:40;;;;;;;44.90;24.50;;;5.70;99.90;;;;;;5115299;28;20047;-74
2022/01/24 13:09:18;;;;;;;44.30;24.80;;;5.60;99.90;;;;;;5115051;28;20047;-74
2022/01/24 13:11:55;;;;;;;46.45;24.65;;;5.70;99.90;;;;;;5115058;28;20502;-73
2022/01/24 13:22:42;;;;;;;48.20;24.88;;;5.90;99.90;;;;;;5114914;28;20066;-74
2022/01/24 13:25:26;;;;;;;50.45;26.73;;;5.70;99.90;;;;;;5102332;28;20040;-74
2022/01/24 13:27:55;;;;;;;58.70;28.55;;;5.80;99.90;;;;;;5079540;28;20048;-70
2022/01/24 13:30:23;;;;;;;51.65;28.98;;;5.50;99.90;;;;;;5073558;28;20049;-70
2022/01/24 13:32:55;;;;;;;53.53;28.70;;;5.50;99.90;;;;;;5073736;28;20400;-71
2022/01/24 13:35:23;;;;;;;52.15;30.38;;;;;;;;;;5073895;28;20044;-72
2022/01/24 13:37:49;;;;;;;52.90;30.35;;;5.80;99.90;;;;;;5073366;28;20056;-71
2022/01/24 13:40:34;;;;;;;56.15;30.20;;;5.60;99.90;;;;;;5056261;28;20052;-71
2022/01/24 13:43:00;;;;;;;55.17;31.35;;;5.90;99.90;;;;;;5073547;28;20076;-71
2022/01/24 13:45:26;;;;;;;53.28;29.35;;;5.70;99.90;;;;;;5073189;28;20045;-71
2022/01/24 13:47:59;;;;;;;57.08;30.27;;;5.70;99.90;;;;;;5072623;28;20052;-71
2022/01/24 13:50:26;;;;;;;61.78;31.27;;;;;;;;;;5073419;28;20044;-79
2022/01/24 13:52:52;;;;;;;56.60;30.55;;;5.40;99.90;;;;;;5072083;28;20044;-73
2022/01/24 13:55:19;;;;;;;58.70;31.00;;;5.60;99.90;;;;;;5073282;28;20048;-76
2022/01/24 13:57:51;;;;;;;53.50;30.60;;;5.40;99.90;;;;;;5073938;28;20040;-76
2022/01/24 14:00:26;;;;;;;60.47;32.95;;;5.70;99.90;;;;;;5072067;28;20432;-76
2022/01/24 14:03:09;;;;;;;62.80;32.53;;;5.70;99.90;;;;;;5073095;28;20487;-71
2022/01/24 14:05:35;;;;;;;57.78;33.03;;;5.50;99.90;;;;;;5072766;28;20057;-73
2022/01/24 14:08:14;;;;;;;56.63;32.78;;;;;;;;;;5072959;28;20049;-77
2022/01/24 14:10:40;;;;;;;55.17;32.03;;;5.50;99.90;;;;;;5071856;28;20087;-74
2022/01/24 14:13:07;;;;;;;60.05;33.55;;;5.50;99.90;;;;;;5071695;28;20098;-73
2022/01/24 14:20:46;;;;;;;57.85;33.40;;;5.40;99.90;;;;;;5093015;28;20486;-75
2022/01/24 14:23:39;;;;;;;54.33;30.92;;;5.50;99.90;;;;;;5091662;28;20449;-75
2022/01/24 14:26:27;;;;;;;45.30;27.85;;;5.60;99.90;;;;;;5091956;28;20051;-72
2022/01/24 14:29:12;;;;;;;54.58;31.23;;;5.80;99.90;;;;;;5092175;28;20055;-78
2022/01/24 14:31:39;;;;;;;48.97;29.33;;;5.80;99.90;;;;;;5093285;28;20067;-72
2022/01/24 14:34:07;;;;;;;55.45;31.92;;;5.70;99.90;;;;;;5093003;28;20047;-75
2022/01/24 14:36:34;;;;;;;60.22;34.30;;;5.70;99.90;;;;;;5091337;28;20055;-75
2022/01/24 14:39:04;;;;;;;59.45;34.03;;;5.60;99.90;;;;;;5091960;28;20448;-74
2022/01/24 14:41:46;;;;;;;57.88;33.05;;;5.50;99.90;;;;;;5091929;28;20056;-75
2022/01/24 14:46:59;;;;;;;54.10;32.47;;;5.40;99.90;;;;;;5092855;28;20125;-73
2022/01/24 14:49:28;;;;;;;54.85;31.10;;;5.40;99.90;;;;;;5091410;28;20400;-71
2022/01/24 14:52:05;;;;;;;58.35;32.75;;;5.50;99.90;;;;;;5092507;28;20051;-72
2022/01/24 14:54:34;;;;;;;58.33;33.42;;;5.50;99.90;;;;;;5092881;28;20056;-74